| time (UTC) | temp F | wind direction | speed knots | gust knots | rain 1hr in | rain 24hr in | rain mn in | humidity % | barometer mb |
| 20260906213009 | 90 | 221 | 0.0 | 3.5 | 0.00 | 0.00 | 0.00 | 38 | 1016.4 |
| 20260906212501 | 89 | 68 | 2.6 | 3.5 | 0.00 | 0.00 | 0.00 | 37 | 1016.7 |
| 20260906211957 | 92 | 255 | 3.5 | 3.5 | 0.00 | 0.00 | 0.00 | 35 | 1016.6 |
| 20260906211452 | 91 | 154 | 0.9 | 3.5 | 0.00 | 0.00 | 0.00 | 37 | 1016.6 |
| 20260906210948 | 90 | 183 | 1.7 | 1.7 | 0.00 | 0.00 | 0.00 | 35 | 1016.8 |
| 20260906210443 | 92 | 322 | 1.7 | 1.7 | 0.00 | 0.00 | 0.00 | 34 | 1016.8 |
| 20260906205942 | 91 | 312 | 0.9 | 1.7 | 0.00 | 0.00 | 0.00 | 35 | 1016.8 |
| 20260906205438 | 89 | 262 | 0.9 | 3.5 | 0.00 | 0.00 | 0.00 | 37 | 1017.0 |
| 20260906204934 | 91 | 228 | 3.5 | 4.3 | 0.00 | 0.00 | 0.00 | 36 | 1016.8 |
| 20260906204434 | 89 | 88 | 0.9 | 4.3 | 0.00 | 0.00 | 0.00 | 39 | 1017.2 |
| 20260906203932 | 89 | 326 | 1.7 | 5.2 | 0.00 | 0.00 | 0.00 | 40 | 1017.2 |
| 20260906203428 | 87 | 116 | 0.9 | 4.3 | 0.00 | 0.00 | 0.00 | 41 | 1017.0 |
| 20260906202925 | 88 | 111 | 3.5 | 4.3 | 0.00 | 0.00 | 0.00 | 40 | 1017.4 |
| 20260906202424 | 87 | 186 | 1.7 | 3.5 | 0.00 | 0.00 | 0.00 | 41 | 1017.4 |
| 20260906201920 | 87 | 109 | 1.7 | 5.2 | 0.00 | 0.00 | 0.00 | 43 | 1017.2 |
| 20260906201413 | 87 | 68 | 3.5 | 5.2 | 0.00 | 0.00 | 0.00 | 41 | 1017.2 |
| 20260906200909 | 87 | 88 | 1.7 | 3.5 | 0.00 | 0.00 | 0.00 | 42 | 1017.4 |
| 20260906200400 | 87 | 138 | 1.7 | 7.0 | 0.00 | 0.00 | 0.00 | 42 | 1017.6 |
| 20260906195900 | 87 | 85 | 0.9 | 3.5 | 0.00 | 0.00 | 0.00 | 42 | 1017.6 |
| 20260906195356 | 87 | 293 | 0.0 | 3.5 | 0.00 | 0.00 | 0.00 | 45 | 1017.6 |
| 20260906194852 | 86 | 239 | 0.9 | 7.8 | 0.00 | 0.00 | 0.00 | 44 | 1017.4 |
| 20260906194348 | 87 | 289 | 0.9 | 1.7 | 0.00 | 0.00 | 0.00 | 44 | 1017.9 |
| 20260906193842 | 86 | 96 | 6.1 | 6.1 | 0.00 | 0.00 | 0.00 | 45 | 1017.5 |
| 20260906193332 | 85 | 61 | 3.5 | 7.0 | 0.00 | 0.00 | 0.00 | 46 | 1017.7 |
| 20260906192828 | 86 | 91 | 2.6 | 5.2 | 0.00 | 0.00 | 0.00 | 43 | 1017.7 |
| 20260906192327 | 85 | 98 | 2.6 | 3.5 | 0.00 | 0.00 | 0.00 | 44 | 1017.9 |
| 20260906191826 | 86 | 133 | 2.6 | 7.8 | 0.00 | 0.00 | 0.00 | 45 | 1017.7 |
| 20260906191316 | 85 | 333 | 0.0 | 6.1 | 0.00 | 0.00 | 0.00 | 42 | 1018.0 |
| 20260906190816 | 85 | 69 | 1.7 | 2.6 | 0.00 | 0.00 | 0.00 | 45 | 1018.0 |
| 20260906190315 | 84 | 70 | 3.5 | 7.0 | 0.00 | 0.00 | 0.00 | 45 | 1018.2 |
| 20260906185815 | 84 | 359 | 0.9 | 3.5 | 0.00 | 0.00 | 0.00 | 46 | 1018.3 |
| 20260906185314 | 84 | 32 | 0.0 | 1.7 | 0.00 | 0.00 | 0.00 | 44 | 1018.5 |
| 20260906184809 | 84 | 125 | 0.0 | 3.5 | 0.00 | 0.00 | 0.00 | 45 | 1018.5 |
| 20260906184304 | 83 | 115 | 1.7 | 3.5 | 0.00 | 0.00 | 0.00 | 48 | 1018.8 |
| 20260906183759 | 83 | 165 | 0.0 | 6.1 | 0.00 | 0.00 | 0.00 | 48 | 1018.5 |
| 20260906183256 | 83 | 73 | 5.2 | 5.2 | 0.00 | 0.00 | 0.00 | 48 | 1019.1 |
| 20260906182755 | 82 | 75 | 2.6 | 4.3 | 0.00 | 0.00 | 0.00 | 50 | 1019.1 |
| 20260906182251 | 82 | 129 | 1.7 | 6.1 | 0.00 | 0.00 | 0.00 | 50 | 1019.0 |
| 20260906181746 | 82 | 118 | 5.2 | 6.1 | 0.00 | 0.00 | 0.00 | 50 | 1019.2 |
| 20260906181242 | 80 | 111 | 3.5 | 5.2 | 0.00 | 0.00 | 0.00 | 52 | 1019.5 |
| 20260906180737 | 81 | 72 | 4.3 | 5.2 | 0.00 | 0.00 | 0.00 | 52 | 1019.5 |
| 20260906180232 | 81 | 50 | 2.6 | 3.5 | 0.00 | 0.00 | 0.00 | 52 | 1019.5 |
| 20260906175729 | 81 | 69 | 3.5 | 5.2 | 0.00 | 0.00 | 0.00 | 52 | 1019.6 |
| 20260906175225 | 82 | 107 | 0.9 | 0.9 | 0.00 | 0.00 | 0.00 | 51 | 1019.9 |
| 20260906174723 | 81 | 242 | 2.6 | 2.6 | 0.00 | 0.00 | 0.00 | 53 | 1020.1 |
| 20260906174218 | 81 | 234 | 0.9 | 3.5 | 0.00 | 0.00 | 0.00 | 53 | 1020.1 |
| 20260906173714 | 82 | 206 | 0.9 | 5.2 | 0.00 | 0.00 | 0.00 | 52 | 1019.9 |
| 20260906173209 | 82 | 223 | 0.9 | 2.6 | 0.00 | 0.00 | 0.00 | 53 | 1019.9 |
| 20260906172703 | 82 | 195 | 0.9 | 1.7 | 0.00 | 0.00 | 0.00 | 52 | 1020.1 |
| 20260906172158 | 81 | 179 | 1.7 | 1.7 | 0.00 | 0.00 | 0.00 | 54 | 1020.4 |
| 20260906171658 | 80 | 221 | 1.7 | 2.6 | 0.00 | 0.00 | 0.00 | 55 | 1020.3 |
| 20260906171154 | 78 | 272 | 3.5 | 3.5 | 0.00 | 0.00 | 0.00 | 57 | 1020.4 |
| 20260906170650 | 78 | 260 | 0.9 | 4.3 | 0.00 | 0.00 | 0.00 | 57 | 1020.6 |
| 20260906170149 | 78 | 289 | 1.7 | 3.5 | 0.00 | 0.00 | 0.00 | 57 | 1020.9 |
| 20260906165646 | 80 | 139 | 0.0 | 1.7 | 0.00 | 0.00 | 0.00 | 54 | 1020.6 |
| 20260906165141 | 78 | 299 | 0.0 | 1.7 | 0.00 | 0.00 | 0.00 | 59 | 1020.7 |
| 20260906164639 | 77 | 10 | 0.0 | 2.6 | 0.00 | 0.00 | 0.00 | 59 | 1020.9 |
| 20260906164135 | 77 | 75 | 3.5 | 4.3 | 0.00 | 0.00 | 0.00 | 59 | 1020.6 |
| 20260906163631 | 75 | 137 | 0.9 | 4.3 | 0.00 | 0.00 | 0.00 | 61 | 1020.9 |
| 20260906163127 | 75 | 60 | 1.7 | 3.5 | 0.00 | 0.00 | 0.00 | 61 | 1020.7 |
| 20260906162624 | 76 | 349 | 1.7 | 2.6 | 0.00 | 0.00 | 0.00 | 60 | 1020.7 |
| 20260906162118 | 75 | 66 | 1.7 | 5.2 | 0.00 | 0.00 | 0.00 | 62 | 1020.7 |
| 20260906161618 | 75 | 66 | 2.6 | 4.3 | 0.00 | 0.00 | 0.00 | 61 | 1020.6 |
| 20260906161117 | 74 | 98 | 1.7 | 4.3 | 0.00 | 0.00 | 0.00 | 63 | 1020.7 |
| 20260906160616 | 74 | 99 | 1.7 | 3.5 | 0.00 | 0.00 | 0.00 | 64 | 1021.0 |
| 20260906160115 | 74 | 71 | 1.7 | 3.5 | 0.00 | 0.00 | 0.00 | 64 | 1021.0 |
| 20260906155613 | 74 | 97 | 3.5 | 5.2 | 0.00 | 0.00 | 0.00 | 63 | 1021.0 |
| 20260906155109 | 73 | 93 | 0.9 | 3.5 | 0.00 | 0.00 | 0.00 | 64 | 1020.9 |
| 20260906154604 | 74 | 60 | 2.6 | 4.3 | 0.00 | 0.00 | 0.00 | 63 | 1020.9 |
| 20260906154103 | 74 | 73 | 1.7 | 1.7 | 0.00 | 0.00 | 0.00 | 64 | 1020.9 |
| 20260906153602 | 72 | 78 | 1.7 | 3.5 | 0.00 | 0.00 | 0.00 | 67 | 1021.0 |
| 20260906153057 | 72 | 44 | 2.6 | 5.2 | 0.00 | 0.00 | 0.00 | 67 | 1021.0 |
| 20260906152557 | 71 | 92 | 3.5 | 4.3 | 0.00 | 0.00 | 0.00 | 68 | 1021.1 |
| 20260906152051 | 71 | 57 | 1.7 | 5.2 | 0.00 | 0.00 | 0.00 | 68 | 1021.2 |
| 20260906151546 | 71 | 76 | 1.7 | 2.6 | 0.00 | 0.00 | 0.00 | 69 | 1021.1 |
| 20260906151042 | 69 | 75 | 1.7 | 2.6 | 0.00 | 0.00 | 0.00 | 73 | 1021.0 |
| 20260906150537 | 69 | 54 | 0.9 | 2.6 | 0.00 | 0.00 | 0.00 | 72 | 1021.1 |
| 20260906150032 | 71 | 77 | 3.5 | 3.5 | 0.00 | 0.00 | 0.00 | 69 | 1021.4 |
| 20260906145531 | 71 | 69 | 2.6 | 4.3 | 0.00 | 0.00 | 0.00 | 69 | 1021.2 |
| 20260906145026 | 71 | 100 | 1.7 | 1.7 | 0.00 | 0.00 | 0.00 | 68 | 1021.4 |
| 20260906144520 | 70 | 42 | 1.7 | 5.2 | 0.00 | 0.00 | 0.00 | 72 | 1021.2 |
| 20260906144016 | 70 | 30 | 1.7 | 4.3 | 0.00 | 0.00 | 0.00 | 70 | 1021.2 |
| 20260906143511 | 71 | 19 | 1.7 | 2.6 | 0.00 | 0.00 | 0.00 | 69 | 1021.2 |
| 20260906143007 | 71 | 76 | 5.2 | 5.2 | 0.00 | 0.00 | 0.00 | 68 | 1021.2 |
| 20260906142501 | 70 | 63 | 0.9 | 2.6 | 0.00 | 0.00 | 0.00 | 69 | 1021.2 |
| 20260906141956 | 70 | 50 | 1.7 | 3.5 | 0.00 | 0.00 | 0.00 | 70 | 1021.2 |
| 20260906141455 | 69 | 318 | 0.9 | 2.6 | 0.00 | 0.00 | 0.00 | 72 | 1021.3 |
| 20260906140951 | 69 | 54 | 0.9 | 4.3 | 0.00 | 0.00 | 0.00 | 72 | 1021.2 |
| 20260906140445 | 69 | 82 | 1.7 | 2.6 | 0.00 | 0.00 | 0.00 | 73 | 1021.1 |
| 20260906135943 | 69 | 32 | 2.6 | 3.5 | 0.00 | 0.00 | 0.00 | 74 | 1021.1 |
| 20260906135442 | 69 | 240 | 0.0 | 1.7 | 0.00 | 0.00 | 0.00 | 74 | 1021.1 |
| 20260906134937 | 67 | 19 | 2.6 | 2.6 | 0.00 | 0.00 | 0.00 | 77 | 1021.0 |
| 20260906134432 | 66 | 82 | 1.7 | 2.6 | 0.00 | 0.00 | 0.00 | 80 | 1020.7 |
| 20260906133927 | 65 | 74 | 1.7 | 3.5 | 0.00 | 0.00 | 0.00 | 82 | 1020.9 |
| 20260906133423 | 64 | 44 | 1.7 | 2.6 | 0.00 | 0.00 | 0.00 | 83 | 1020.9 |
| 20260906132919 | 64 | 56 | 1.7 | 4.3 | 0.00 | 0.00 | 0.00 | 83 | 1020.9 |
| 20260906132414 | 64 | 81 | 1.7 | 3.5 | 0.00 | 0.00 | 0.00 | 84 | 1020.7 |
| 20260906131909 | 63 | 40 | 0.0 | 2.6 | 0.00 | 0.00 | 0.00 | 85 | 1020.7 |
| 20260906131405 | 63 | 35 | 3.5 | 3.5 | 0.00 | 0.00 | 0.00 | 85 | 1020.7 |
| 20260906130901 | 63 | 13 | 1.7 | 4.3 | 0.00 | 0.00 | 0.00 | 87 | 1020.6 |
| 20260906130359 | 62 | 60 | 1.7 | 2.6 | 0.00 | 0.00 | 0.00 | 87 | 1020.9 |
| 20260906125859 | 62 | 3 | 0.9 | 3.5 | 0.00 | 0.00 | 0.00 | 88 | 1020.6 |
| 20260906125356 | 62 | 27 | 1.7 | 2.6 | 0.00 | 0.00 | 0.00 | 89 | 1021.0 |
| 20260906124851 | 61 | 65 | 1.7 | 3.5 | 0.00 | 0.00 | 0.00 | 89 | 1020.7 |
| 20260906124347 | 61 | 42 | 3.5 | 3.5 | 0.00 | 0.00 | 0.00 | 90 | 1020.5 |
| 20260906123846 | 61 | 53 | 1.7 | 3.5 | 0.00 | 0.00 | 0.00 | 90 | 1020.6 |
| 20260906123341 | 61 | 61 | 0.9 | 3.5 | 0.00 | 0.00 | 0.00 | 91 | 1020.6 |
| 20260906122841 | 61 | 1 | 1.7 | 2.6 | 0.00 | 0.00 | 0.00 | 91 | 1020.7 |
| 20260906122336 | 61 | 49 | 0.0 | 2.6 | 0.00 | 0.00 | 0.00 | 91 | 1020.7 |
| 20260906121833 | 61 | 31 | 1.7 | 2.6 | 0.00 | 0.00 | 0.00 | 91 | 1020.5 |
| 20260906121328 | 61 | 12 | 1.7 | 1.7 | 0.00 | 0.00 | 0.00 | 91 | 1020.5 |
| 20260906120824 | 61 | 59 | 1.7 | 3.5 | 0.00 | 0.00 | 0.00 | 90 | 1020.4 |
| 20260906120320 | 61 | 55 | 1.7 | 3.5 | 0.00 | 0.00 | 0.00 | 90 | 1020.4 |
| 20260906115816 | 62 | 100 | 0.9 | 2.6 | 0.00 | 0.00 | 0.00 | 90 | 1020.5 |
| 20260906115311 | 61 | 76 | 2.6 | 2.6 | 0.00 | 0.00 | 0.00 | 90 | 1020.9 |
| 20260906114810 | 61 | 69 | 0.9 | 2.6 | 0.00 | 0.00 | 0.00 | 90 | 1020.4 |
| 20260906114305 | 62 | 82 | 1.7 | 2.6 | 0.00 | 0.00 | 0.00 | 89 | 1020.4 |
| 20260906113800 | 61 | 13 | 1.7 | 2.6 | 0.00 | 0.00 | 0.00 | 89 | 1020.7 |
| 20260906113300 | 61 | 48 | 1.7 | 2.6 | 0.00 | 0.00 | 0.00 | 89 | 1020.5 |
| 20260906112755 | 62 | 76 | 1.7 | 3.5 | 0.00 | 0.00 | 0.00 | 89 | 1020.7 |
| 20260906112251 | 62 | 45 | 2.6 | 3.5 | 0.00 | 0.00 | 0.00 | 88 | 1020.2 |
| 20260906111750 | 62 | 35 | 1.7 | 2.6 | 0.00 | 0.00 | 0.00 | 88 | 1020.2 |
| 20260906111244 | 62 | 72 | 0.0 | 2.6 | 0.00 | 0.00 | 0.00 | 88 | 1020.4 |
| 20260906110740 | 62 | 77 | 1.7 | 3.5 | 0.00 | 0.00 | 0.00 | 87 | 1020.4 |
| 20260906110236 | 62 | 82 | 1.7 | 2.6 | 0.00 | 0.00 | 0.00 | 87 | 1020.4 |
| 20260906105734 | 62 | 81 | 0.9 | 3.5 | 0.00 | 0.00 | 0.00 | 87 | 1020.2 |
| 20260906105230 | 62 | 70 | 1.7 | 3.5 | 0.00 | 0.00 | 0.00 | 87 | 1020.2 |
| 20260906104725 | 63 | 72 | 1.7 | 3.5 | 0.00 | 0.00 | 0.00 | 86 | 1020.2 |
| 20260906104224 | 63 | 37 | 3.5 | 4.3 | 0.00 | 0.00 | 0.00 | 86 | 1020.2 |
| 20260906103722 | 63 | 65 | 1.7 | 3.5 | 0.00 | 0.00 | 0.00 | 85 | 1020.2 |
| 20260906103217 | 64 | 25 | 1.7 | 3.5 | 0.00 | 0.00 | 0.00 | 84 | 1020.4 |
| 20260906102712 | 64 | 62 | 0.0 | 1.7 | 0.00 | 0.00 | 0.00 | 84 | 1020.2 |
| 20260906102211 | 64 | 322 | 0.0 | 1.7 | 0.00 | 0.00 | 0.00 | 84 | 1020.3 |
| 20260906101706 | 64 | 45 | 2.6 | 3.5 | 0.00 | 0.00 | 0.00 | 84 | 1020.4 |
| 20260906101201 | 64 | 30 | 0.0 | 1.7 | 0.00 | 0.00 | 0.00 | 83 | 1020.5 |
| 20260906100656 | 64 | 89 | 0.0 | 2.6 | 0.00 | 0.00 | 0.00 | 82 | 1020.4 |
| 20260906100151 | 65 | 59 | 1.7 | 2.6 | 0.00 | 0.00 | 0.00 | 82 | 1020.2 |
| 20260906095646 | 64 | 42 | 1.7 | 2.6 | 0.00 | 0.00 | 0.00 | 81 | 1020.4 |
| 20260906095141 | 65 | 29 | 0.0 | 2.6 | 0.00 | 0.00 | 0.00 | 81 | 1020.3 |
| 20260906094640 | 65 | 24 | 0.9 | 1.7 | 0.00 | 0.00 | 0.00 | 80 | 1020.4 |
| 20260906094136 | 65 | 65 | 0.0 | 1.7 | 0.00 | 0.00 | 0.00 | 79 | 1020.2 |
| 20260906093632 | 65 | 45 | 0.9 | 2.6 | 0.00 | 0.00 | 0.00 | 79 | 1020.1 |
| 20260906093132 | 65 | 62 | 1.7 | 4.3 | 0.00 | 0.00 | 0.00 | 78 | 1019.8 |
| 20260906092627 | 66 | 34 | 1.7 | 4.3 | 0.00 | 0.00 | 0.00 | 77 | 1019.8 |
| 20260906092122 | 66 | 45 | 0.9 | 4.3 | 0.00 | 0.00 | 0.00 | 77 | 1019.8 |
| 20260906091618 | 66 | 28 | 3.5 | 3.5 | 0.00 | 0.00 | 0.00 | 76 | 1019.5 |
| 20260906091115 | 66 | 49 | 0.9 | 3.5 | 0.00 | 0.00 | 0.00 | 77 | 1019.6 |
| 20260906090614 | 66 | 81 | 0.9 | 3.5 | 0.00 | 0.00 | 0.00 | 77 | 1019.5 |
| 20260906090109 | 65 | 56 | 1.7 | 3.5 | 0.00 | 0.00 | 0.00 | 77 | 1019.5 |
| 20260906085608 | 65 | 29 | 1.7 | 3.5 | 0.00 | 0.00 | 0.00 | 76 | 1019.8 |
| 20260906085102 | 65 | 79 | 1.7 | 2.6 | 0.00 | 0.00 | 0.00 | 76 | 1019.7 |
| 20260906084557 | 66 | 48 | 0.9 | 3.5 | 0.00 | 0.00 | 0.00 | 76 | 1019.5 |
| 20260906084056 | 66 | 60 | 1.7 | 3.5 | 0.00 | 0.00 | 0.00 | 75 | 1019.6 |
| 20260906083552 | 66 | 47 | 1.7 | 1.7 | 0.00 | 0.00 | 0.00 | 75 | 1019.6 |
| 20260906083051 | 66 | 55 | 1.7 | 3.5 | 0.00 | 0.00 | 0.00 | 75 | 1019.5 |
| 20260906082547 | 66 | 28 | 2.6 | 4.3 | 0.00 | 0.00 | 0.00 | 74 | 1019.8 |
| 20260906082042 | 66 | 73 | 1.7 | 2.6 | 0.00 | 0.00 | 0.00 | 74 | 1019.8 |
| 20260906081538 | 66 | 71 | 0.9 | 3.5 | 0.00 | 0.00 | 0.00 | 73 | 1019.5 |
| 20260906081033 | 66 | 12 | 2.6 | 2.6 | 0.00 | 0.00 | 0.00 | 73 | 1019.8 |
| 20260906080530 | 67 | 28 | 1.7 | 3.5 | 0.00 | 0.00 | 0.00 | 73 | 1019.9 |
| 20260906080025 | 66 | 89 | 0.0 | 2.6 | 0.00 | 0.00 | 0.00 | 74 | 1019.9 |
| 20260906075519 | 67 | 91 | 1.7 | 3.5 | 0.00 | 0.00 | 0.00 | 74 | 1019.8 |
| 20260906075014 | 67 | 34 | 1.7 | 3.5 | 0.00 | 0.00 | 0.00 | 74 | 1019.9 |
| 20260906074509 | 67 | 41 | 1.7 | 4.3 | 0.00 | 0.00 | 0.00 | 73 | 1019.9 |
| 20260906074007 | 68 | 50 | 0.9 | 6.1 | 0.00 | 0.00 | 0.00 | 73 | 1019.4 |
| 20260906073503 | 67 | 19 | 3.5 | 3.5 | 0.00 | 0.00 | 0.00 | 74 | 1019.5 |
| 20260906072958 | 67 | 58 | 1.7 | 4.3 | 0.00 | 0.00 | 0.00 | 74 | 1019.7 |
| 20260906072453 | 66 | 64 | 0.0 | 4.3 | 0.00 | 0.00 | 0.00 | 74 | 1019.7 |
| 20260906071949 | 66 | 167 | 1.7 | 1.7 | 0.00 | 0.00 | 0.00 | 75 | 1019.9 |
| 20260906071446 | 66 | 88 | 0.0 | 0.9 | 0.00 | 0.00 | 0.00 | 75 | 1019.8 |
| 20260906070941 | 66 | 99 | 0.0 | 2.6 | 0.00 | 0.00 | 0.00 | 75 | 1019.8 |
| 20260906070437 | 67 | 130 | 0.0 | 1.7 | 0.00 | 0.00 | 0.00 | 74 | 1019.6 |
| 20260906065932 | 67 | 240 | 0.0 | 1.7 | 0.00 | 0.00 | 0.00 | 73 | 1019.7 |
| 20260906065427 | 67 | 254 | 1.7 | 2.6 | 0.00 | 0.00 | 0.00 | 72 | 1019.5 |
| 20260906064922 | 67 | 314 | 0.0 | 1.7 | 0.00 | 0.00 | 0.00 | 71 | 1019.6 |
| 20260906064419 | 68 | 125 | 0.0 | 1.7 | 0.00 | 0.00 | 0.00 | 69 | 1019.6 |
| 20260906063918 | 68 | 240 | 0.0 | 0.9 | 0.00 | 0.00 | 0.00 | 68 | 1019.6 |
| 20260906063414 | 68 | 278 | 2.6 | 3.5 | 0.00 | 0.00 | 0.00 | 67 | 1019.7 |
| 20260906062909 | 68 | 262 | 0.0 | 2.6 | 0.00 | 0.00 | 0.00 | 68 | 1019.9 |
| 20260906062409 | 68 | 171 | 1.7 | 2.6 | 0.00 | 0.00 | 0.00 | 67 | 1019.8 |
| 20260906061904 | 68 | 54 | 1.7 | 5.2 | 0.00 | 0.00 | 0.00 | 68 | 1019.8 |
| 20260906061400 | 68 | 347 | 4.3 | 4.3 | 0.00 | 0.00 | 0.00 | 68 | 1019.8 |
| 20260906060854 | 68 | 60 | 2.6 | 4.3 | 0.00 | 0.00 | 0.00 | 67 | 1019.6 |
| 20260906060352 | 68 | 58 | 2.6 | 4.3 | 0.00 | 0.00 | 0.00 | 66 | 1019.5 |
| 20260906055848 | 69 | 52 | 1.7 | 3.5 | 0.00 | 0.00 | 0.00 | 64 | 1019.7 |
| 20260906055343 | 69 | 29 | 2.6 | 4.3 | 0.00 | 0.00 | 0.00 | 63 | 1019.6 |
| 20260906054838 | 69 | 29 | 3.5 | 5.2 | 0.00 | 0.00 | 0.00 | 62 | 1019.4 |
| 20260906054333 | 69 | 32 | 1.7 | 7.0 | 0.00 | 0.00 | 0.00 | 61 | 1019.4 |
| 20260906053830 | 71 | 49 | 2.6 | 3.5 | 0.00 | 0.00 | 0.00 | 56 | 1019.2 |
| 20260906053325 | 71 | 116 | 0.0 | 1.7 | 0.00 | 0.00 | 0.00 | 52 | 1019.5 |
| 20260906052820 | 72 | 46 | 0.9 | 1.7 | 0.00 | 0.00 | 0.00 | 52 | 1019.7 |
| 20260906052317 | 72 | 251 | 3.5 | 3.5 | 0.00 | 0.00 | 0.00 | 51 | 1019.8 |
| 20260906051814 | 73 | 230 | 0.9 | 1.7 | 0.00 | 0.00 | 0.00 | 49 | 1019.4 |
| 20260906051313 | 73 | 357 | 0.9 | 2.6 | 0.00 | 0.00 | 0.00 | 49 | 1019.5 |
| 20260906050809 | 74 | 37 | 1.7 | 3.5 | 0.00 | 0.00 | 0.00 | 48 | 1019.0 |
| 20260906050304 | 75 | 53 | 3.5 | 7.0 | 0.00 | 0.00 | 0.00 | 46 | 1019.1 |
| 20260906045802 | 75 | 63 | 5.2 | 6.1 | 0.00 | 0.00 | 0.00 | 46 | 1019.1 |
| 20260906045257 | 75 | 71 | 3.5 | 4.3 | 0.00 | 0.00 | 0.00 | 47 | 1019.4 |
| 20260906044754 | 75 | 82 | 1.7 | 2.6 | 0.00 | 0.00 | 0.00 | 44 | 1019.0 |
| 20260906044248 | 75 | 58 | 1.7 | 2.6 | 0.00 | 0.00 | 0.00 | 44 | 1018.9 |
| 20260906043744 | 75 | 15 | 1.7 | 2.6 | 0.00 | 0.00 | 0.00 | 43 | 1018.9 |
| 20260906043240 | 74 | 17 | 1.7 | 1.7 | 0.00 | 0.00 | 0.00 | 44 | 1018.9 |
| 20260906042739 | 73 | 359 | 1.7 | 1.7 | 0.00 | 0.00 | 0.00 | 46 | 1018.7 |
| 20260906042238 | 73 | 67 | 1.7 | 4.3 | 0.00 | 0.00 | 0.00 | 46 | 1018.8 |
| 20260906041734 | 73 | 40 | 1.7 | 5.2 | 0.00 | 0.00 | 0.00 | 44 | 1018.5 |
| 20260906041229 | 73 | 72 | 0.0 | 2.6 | 0.00 | 0.00 | 0.00 | 45 | 1018.7 |
| 20260906040725 | 75 | 57 | 3.5 | 3.5 | 0.00 | 0.00 | 0.00 | 42 | 1018.5 |
| 20260906040220 | 75 | 72 | 1.7 | 3.5 | 0.00 | 0.00 | 0.00 | 41 | 1018.9 |
| 20260906035715 | 74 | 21 | 1.7 | 4.3 | 0.00 | 0.00 | 0.00 | 43 | 1018.4 |
| 20260906035210 | 75 | 43 | 3.5 | 4.3 | 0.00 | 0.00 | 0.00 | 42 | 1018.4 |
| 20260906034705 | 75 | 27 | 3.5 | 5.2 | 0.00 | 0.00 | 0.00 | 40 | 1018.3 |
| 20260906034205 | 75 | 53 | 3.5 | 4.3 | 0.00 | 0.00 | 0.00 | 41 | 1018.5 |
| 20260906033701 | 76 | 56 | 1.7 | 2.6 | 0.00 | 0.00 | 0.00 | 40 | 1018.5 |
| 20260906033200 | 75 | 26 | 1.7 | 3.5 | 0.00 | 0.00 | 0.00 | 41 | 1018.2 |
| 20260906032657 | 75 | 80 | 0.9 | 3.5 | 0.00 | 0.00 | 0.00 | 41 | 1018.4 |
| 20260906032152 | 77 | 69 | 0.0 | 4.3 | 0.00 | 0.00 | 0.00 | 38 | 1018.2 |
| 20260906031648 | 77 | 81 | 1.7 | 3.5 | 0.00 | 0.00 | 0.00 | 38 | 1018.0 |
| 20260906031143 | 77 | 46 | 0.9 | 3.5 | 0.00 | 0.00 | 0.00 | 37 | 1018.0 |
| 20260906030642 | 77 | 334 | 0.9 | 2.6 | 0.00 | 0.00 | 0.00 | 37 | 1017.9 |
| 20260906030138 | 77 | 358 | 0.0 | 2.6 | 0.00 | 0.00 | 0.00 | 37 | 1018.0 |
| 20260906025636 | 77 | 47 | 0.0 | 5.2 | 0.00 | 0.00 | 0.00 | 38 | 1017.7 |
| 20260906025136 | 77 | 28 | 2.6 | 3.5 | 0.00 | 0.00 | 0.00 | 39 | 1018.1 |
| 20260906024630 | 77 | 18 | 3.5 | 4.3 | 0.00 | 0.00 | 0.00 | 38 | 1017.9 |
| 20260906024125 | 78 | 17 | 3.5 | 5.2 | 0.00 | 0.00 | 0.00 | 38 | 1018.0 |
| 20260906023621 | 78 | 10 | 2.6 | 5.2 | 0.00 | 0.00 | 0.00 | 39 | 1017.7 |
| 20260906023120 | 78 | 50 | 1.7 | 4.3 | 0.00 | 0.00 | 0.00 | 39 | 1018.0 |
| 20260906022615 | 78 | 135 | 0.9 | 3.5 | 0.00 | 0.00 | 0.00 | 39 | 1017.9 |
| 20260906022111 | 78 | 45 | 1.7 | 3.5 | 0.00 | 0.00 | 0.00 | 38 | 1018.0 |
| 20260906021607 | 79 | 27 | 0.0 | 4.3 | 0.00 | 0.00 | 0.00 | 37 | 1017.7 |
| 20260906021106 | 79 | 93 | 1.7 | 3.5 | 0.00 | 0.00 | 0.00 | 37 | 1017.4 |
| 20260906020605 | 79 | 23 | 4.3 | 5.2 | 0.00 | 0.00 | 0.00 | 37 | 1017.4 |
| 20260906020101 | 78 | 19 | 0.0 | 2.6 | 0.00 | 0.00 | 0.00 | 38 | 1017.4 |
| 20260906015559 | 78 | 92 | 0.9 | 1.7 | 0.00 | 0.00 | 0.00 | 38 | 1017.4 |
| 20260906015053 | 79 | 62 | 0.0 | 2.6 | 0.00 | 0.00 | 0.00 | 37 | 1017.4 |
| 20260906014548 | 80 | 269 | 1.7 | 2.6 | 0.00 | 0.00 | 0.00 | 36 | 1017.5 |
| 20260906014044 | 81 | 333 | 0.0 | 3.5 | 0.00 | 0.00 | 0.00 | 34 | 1017.5 |
| 20260906013539 | 81 | 42 | 0.9 | 1.7 | 0.00 | 0.00 | 0.00 | 34 | 1017.3 |
| 20260906013035 | 81 | 265 | 0.9 | 1.7 | 0.00 | 0.00 | 0.00 | 33 | 1017.3 |
| 20260906012530 | 82 | 219 | 0.0 | 1.7 | 0.00 | 0.00 | 0.00 | 32 | 1016.9 |
| 20260906012029 | 82 | 310 | 0.9 | 3.5 | 0.00 | 0.00 | 0.00 | 32 | 1017.0 |
| 20260906011526 | 83 | 251 | 0.0 | 2.6 | 0.00 | 0.00 | 0.00 | 32 | 1016.8 |
| 20260906011025 | 83 | 218 | 1.7 | 2.6 | 0.00 | 0.00 | 0.00 | 31 | 1017.0 |
| 20260906010520 | 83 | 119 | 1.7 | 2.6 | 0.00 | 0.00 | 0.00 | 31 | 1017.0 |
| 20260906010017 | 84 | 327 | 0.0 | 3.5 | 0.00 | 0.00 | 0.00 | 31 | 1016.9 |
| 20260906005515 | 84 | 245 | 0.0 | 2.6 | 0.00 | 0.00 | 0.00 | 31 | 1017.0 |
| 20260906005014 | 84 | 269 | 0.0 | 4.3 | 0.00 | 0.00 | 0.00 | 31 | 1016.7 |
| 20260906004509 | 84 | 214 | 1.7 | 3.5 | 0.00 | 0.00 | 0.00 | 31 | 1016.8 |
| 20260906004004 | 84 | 267 | 1.7 | 5.2 | 0.00 | 0.00 | 0.00 | 31 | 1017.2 |
| 20260906003459 | 85 | 216 | 0.9 | 6.1 | 0.00 | 0.00 | 0.00 | 31 | 1017.0 |
| 20260906002954 | 86 | 256 | 2.6 | 3.5 | 0.00 | 0.00 | 0.00 | 30 | 1016.6 |
| 20260906002449 | 86 | 262 | 5.2 | 7.8 | 0.00 | 0.00 | 0.00 | 30 | 1016.7 |
| 20260906001944 | 87 | 266 | 1.7 | 2.6 | 0.00 | 0.00 | 0.00 | 30 | 1016.7 |
| 20260906001440 | 87 | 231 | 0.0 | 1.7 | 0.00 | 0.00 | 0.00 | 30 | 1016.5 |
| 20260906000934 | 87 | 275 | 1.7 | 1.7 | 0.00 | 0.00 | 0.00 | 29 | 1016.6 |
| 20260906000430 | 87 | 221 | 0.9 | 1.7 | 0.00 | 0.00 | 0.00 | 30 | 1016.8 |
| 20260905235919 | 88 | 252 | 2.6 | 3.5 | 0.00 | 0.00 | 0.00 | 30 | 1016.8 |
| 20260905235418 | 88 | 254 | 0.9 | 2.6 | 0.00 | 0.00 | 0.00 | 30 | 1016.7 |
| 20260905234913 | 89 | 262 | 0.9 | 1.7 | 0.00 | 0.00 | 0.00 | 28 | 1016.8 |
| 20260905234409 | 89 | 246 | 1.7 | 3.5 | 0.00 | 0.00 | 0.00 | 27 | 1016.7 |
| 20260905233904 | 89 | 263 | 1.7 | 3.5 | 0.00 | 0.00 | 0.00 | 29 | 1016.6 |
| 20260905233359 | 89 | 259 | 0.9 | 2.6 | 0.00 | 0.00 | 0.00 | 29 | 1016.8 |
| 20260905232858 | 89 | 258 | 1.7 | 2.6 | 0.00 | 0.00 | 0.00 | 29 | 1016.2 |
| 20260905232354 | 91 | 258 | 5.2 | 5.2 | 0.00 | 0.00 | 0.00 | 27 | 1016.4 |
| 20260905231849 | 92 | 242 | 0.0 | 0.9 | 0.00 | 0.00 | 0.00 | 25 | 1016.5 |
| 20260905231344 | 92 | 235 | 0.9 | 1.7 | 0.00 | 0.00 | 0.00 | 24 | 1016.5 |
| 20260905230841 | 93 | 246 | 1.7 | 1.7 | 0.00 | 0.00 | 0.00 | 23 | 1016.2 |
| 20260905230339 | 94 | 76 | 0.0 | 1.7 | 0.00 | 0.00 | 0.00 | 22 | 1016.4 |
| 20260905225838 | 94 | 67 | 0.9 | 1.7 | 0.00 | 0.00 | 0.00 | 22 | 1016.2 |
| 20260905225333 | 93 | 15 | 0.0 | 0.9 | 0.00 | 0.00 | 0.00 | 23 | 1016.2 |
| 20260905224828 | 93 | 206 | 0.0 | 1.7 | 0.00 | 0.00 | 0.00 | 23 | 1016.0 |
| 20260905224324 | 92 | 60 | 0.0 | 2.6 | 0.00 | 0.00 | 0.00 | 22 | 1016.0 |
| 20260905223818 | 93 | 111 | 0.0 | 1.7 | 0.00 | 0.00 | 0.00 | 22 | 1016.2 |
| 20260905223316 | 94 | 96 | 1.7 | 4.3 | 0.00 | 0.00 | 0.00 | 22 | 1016.4 |
| 20260905222811 | 95 | 96 | 3.5 | 5.2 | 0.00 | 0.00 | 0.00 | 22 | 1016.0 |
| 20260905222310 | 96 | 0 | 1.7 | 1.7 | 0.00 | 0.00 | 0.00 | 21 | 1016.1 |
| 20260905221806 | 95 | 309 | 0.9 | 1.7 | 0.00 | 0.00 | 0.00 | 21 | 1016.0 |
| 20260905221303 | 95 | 281 | 0.9 | 3.5 | 0.00 | 0.00 | 0.00 | 22 | 1016.4 |
| 20260905220758 | 95 | 68 | 1.7 | 4.3 | 0.00 | 0.00 | 0.00 | 21 | 1016.2 |
| 20260905220254 | 94 | 359 | 1.7 | 4.3 | 0.00 | 0.00 | 0.00 | 22 | 1016.6 |
| 20260905215753 | 95 | 35 | 2.6 | 4.3 | 0.00 | 0.00 | 0.00 | 22 | 1016.5 |
| 20260905215249 | 94 | 104 | 1.7 | 4.3 | 0.00 | 0.00 | 0.00 | 22 | 1016.6 |
| 20260905214745 | 95 | 66 | 3.5 | 8.7 | 0.00 | 0.00 | 0.00 | 22 | 1016.5 |
| 20260905214240 | 95 | 30 | 1.7 | 4.3 | 0.00 | 0.00 | 0.00 | 21 | 1016.7 |
| 20260905213735 | 95 | 55 | 1.7 | 5.2 | 0.00 | 0.00 | 0.00 | 21 | 1016.7 |
| 20260905213232 | 95 | 5 | 2.6 | 6.1 | 0.00 | 0.00 | 0.00 | 22 | 1016.9 |